Terminal Aerodrome Forecast
Issued by NWS

Home | Current Version | Previous Version | Graphics & Text | Print | Product List | Glossary On
Versions: 1 2 3 4 5 6 7 8 9 10 11 12 13 14 15 16 17 18 19 20 21 22 23 24 25 26 27 28 29 30 31 32 33 34
000
FTUS43 KLOT 130500
TAFDPA
TAF
KDPA 130539Z 1306/1406 19012G20KT P6SM SCT060 SCT250
     FM130900 20011KT P6SM VCTS BKN050CB BKN250
     FM131300 21012KT P6SM SCT050 BKN250
     FM131900 19012KT P6SM VCSH BKN025CB PROB30 1319/1401 4SM -TSRA
      SCT007 OVC020CB
     FM140100 04012G18KT 4SM SHRA VCTS OVC009CB=

USA.gov is the U.S. government's official web portal to all federal, state and local government web resources and services.